createdAt,value
2018-10-05T00:02:16.331Z,24.33
2018-10-05T00:04:45.572Z,30.00
2018-10-05T00:07:14.679Z,27.60
2018-10-05T00:09:43.447Z,25.17
2018-10-05T00:12:12.258Z,32.73
2018-10-05T00:14:41.602Z,31.50
2018-10-05T00:17:10.388Z,25.37
2018-10-05T00:19:39.234Z,27.17
2018-10-05T00:22:08.013Z,26.63
2018-10-05T00:24:36.833Z,32.77
2018-10-05T00:27:05.831Z,36.50
2018-10-05T00:29:35.079Z,33.10
2018-10-05T00:32:03.877Z,24.93
2018-10-05T00:34:32.800Z,30.27
2018-10-05T00:37:01.843Z,27.90
2018-10-05T00:39:30.755Z,39.40
2018-10-05T00:42:00.023Z,41.53
2018-10-05T00:44:29.099Z,35.30
2018-10-05T00:46:57.934Z,32.37
2018-10-05T00:49:26.943Z,36.93
2018-10-05T00:51:55.788Z,32.33
2018-10-05T00:54:24.809Z,27.40
2018-10-05T00:56:53.974Z,33.93
2018-10-05T00:59:25.848Z,36.30
2018-10-05T01:01:54.637Z,31.10
2018-10-05T01:04:23.441Z,30.73
2018-10-05T01:06:52.577Z,32.30
2018-10-05T01:09:21.988Z,34.50
2018-10-05T01:11:50.815Z,34.50
2018-10-05T01:14:19.822Z,43.80
2018-10-05T01:16:49.377Z,40.03
2018-10-05T01:19:18.476Z,32.40
2018-10-05T01:21:47.267Z,36.67
2018-10-05T01:24:16.562Z,37.57
2018-10-05T01:26:45.608Z,45.20
2018-10-05T01:29:14.634Z,42.97
2018-10-05T01:31:43.489Z,42.67
2018-10-05T01:34:12.241Z,42.17
2018-10-05T01:36:41.106Z,47.23
2018-10-05T01:39:10.405Z,45.17
2018-10-05T01:41:40.003Z,46.53
2018-10-05T01:44:08.973Z,46.73
2018-10-05T01:46:38.137Z,59.23
2018-10-05T01:49:06.941Z,40.17
2018-10-05T01:51:37.780Z,42.93
2018-10-05T01:54:07.644Z,40.37
2018-10-05T01:56:36.940Z,43.47
2018-10-05T01:59:06.322Z,47.47
2018-10-05T02:01:35.446Z,43.73
2018-10-05T02:04:04.327Z,44.70
2018-10-05T02:06:33.146Z,40.27
2018-10-05T02:09:02.076Z,39.67
2018-10-05T02:11:31.203Z,44.70
2018-10-05T02:14:00.162Z,47.67
2018-10-05T02:16:29.335Z,43.37
2018-10-05T02:18:58.611Z,50.70
2018-10-05T02:21:28.004Z,45.20
2018-10-05T02:23:57.282Z,47.50
2018-10-05T02:26:26.585Z,40.87
2018-10-05T02:28:55.414Z,42.47
2018-10-05T02:31:24.629Z,46.20
2018-10-05T02:33:54.003Z,38.93
2018-10-05T02:36:22.805Z,49.40
2018-10-05T02:38:51.689Z,42.07
2018-10-05T02:41:20.504Z,38.40
2018-10-05T02:43:49.375Z,44.03
2018-10-05T02:46:18.194Z,39.97
2018-10-05T02:48:47.303Z,42.20
2018-10-05T02:51:16.626Z,56.53
2018-10-05T02:53:45.828Z,43.30
2018-10-05T02:56:14.817Z,39.00
2018-10-05T02:58:43.899Z,38.87
2018-10-05T03:01:23.837Z,34.43
2018-10-05T03:03:53.556Z,52.20
2018-10-05T03:06:22.485Z,40.27
2018-10-05T03:08:51.330Z,37.97
2018-10-05T03:11:20.376Z,34.97
2018-10-05T03:13:49.229Z,41.23
2018-10-05T03:16:18.135Z,37.43
2018-10-05T03:18:47.859Z,37.83
2018-10-05T03:21:17.191Z,39.00
2018-10-05T03:23:46.228Z,34.13
2018-10-05T03:26:15.153Z,43.90
2018-10-05T03:28:44.066Z,39.40
2018-10-05T03:31:12.907Z,37.40
2018-10-05T03:33:42.446Z,37.93
2018-10-05T03:36:11.841Z,44.67
2018-10-05T03:38:40.731Z,39.07
2018-10-05T03:41:09.651Z,50.27
2018-10-05T03:43:38.592Z,37.70
2018-10-05T03:46:08.035Z,44.87
2018-10-05T03:48:36.993Z,35.77
2018-10-05T03:51:06.011Z,34.90
2018-10-05T03:53:34.938Z,34.73
2018-10-05T03:56:04.244Z,40.20
2018-10-05T03:58:33.025Z,36.37
2018-10-05T04:01:02.076Z,34.10
2018-10-05T04:03:31.133Z,31.17
2018-10-05T04:05:59.942Z,30.67
2018-10-05T04:08:28.766Z,37.93
2018-10-05T04:10:58.023Z,33.77
2018-10-05T04:13:26.946Z,35.87
2018-10-05T04:15:55.849Z,37.93
2018-10-05T04:18:24.971Z,37.93
2018-10-05T04:20:54.249Z,42.37
2018-10-05T04:23:23.162Z,33.50
2018-10-05T04:25:52.263Z,35.83
2018-10-05T04:28:21.053Z,30.73
2018-10-05T04:30:49.937Z,44.87
2018-10-05T04:33:19.518Z,31.63
2018-10-05T04:35:48.771Z,35.27
2018-10-05T04:38:18.031Z,31.67
2018-10-05T04:40:46.995Z,34.43
2018-10-05T04:43:15.864Z,41.23
2018-10-05T04:45:44.719Z,31.30
2018-10-05T04:48:13.893Z,38.47
2018-10-05T04:50:43.123Z,36.30
2018-10-05T04:53:18.752Z,31.70
2018-10-05T04:55:47.675Z,28.10
2018-10-05T04:58:17.223Z,25.83
2018-10-05T05:00:46.953Z,37.80
2018-10-05T05:03:17.537Z,36.57
2018-10-05T05:05:46.703Z,32.90
2018-10-05T05:08:15.954Z,32.33
2018-10-05T05:10:44.804Z,31.27
2018-10-05T05:13:14.081Z,33.17
2018-10-05T05:15:44.810Z,35.53
2018-10-05T05:18:13.718Z,35.43
2018-10-05T05:20:43.295Z,31.00
2018-10-05T05:23:12.997Z,39.13
2018-10-05T05:25:42.317Z,36.60
2018-10-05T05:28:13.130Z,34.47
2018-10-05T05:30:41.945Z,33.93
2018-10-05T05:33:11.176Z,29.57
2018-10-05T05:35:40.282Z,28.23
2018-10-05T05:38:09.335Z,30.20
2018-10-05T05:40:38.852Z,33.53
2018-10-05T05:43:07.699Z,40.57
2018-10-05T05:45:36.580Z,35.80
2018-10-05T05:48:05.422Z,31.33
2018-10-05T05:50:35.110Z,29.47
2018-10-05T05:53:03.891Z,39.63
2018-10-05T05:55:33.560Z,33.10
2018-10-05T05:58:02.803Z,34.73
2018-10-05T06:00:31.946Z,37.47
2018-10-05T06:03:02.188Z,42.80
2018-10-05T06:05:31.602Z,31.87
2018-10-05T06:08:00.476Z,33.27
2018-10-05T06:10:29.296Z,39.83
2018-10-05T06:12:58.126Z,35.07
2018-10-05T06:15:27.259Z,41.30
2018-10-05T06:17:56.089Z,39.07
2018-10-05T06:20:25.289Z,30.73
2018-10-05T06:22:54.527Z,34.90
2018-10-05T06:25:23.350Z,39.10
2018-10-05T06:27:52.144Z,27.47
2018-10-05T06:30:21.181Z,45.03
2018-10-05T06:32:50.383Z,34.27
2018-10-05T06:35:19.537Z,41.40
2018-10-05T06:37:48.838Z,48.70
2018-10-05T06:40:18.013Z,45.70
2018-10-05T06:42:46.891Z,41.20
2018-10-05T06:45:16.416Z,41.83
2018-10-05T06:47:45.464Z,39.00
2018-10-05T06:50:14.350Z,40.43
2018-10-05T06:52:43.448Z,39.43
2018-10-05T06:55:12.535Z,41.80
2018-10-05T06:57:41.312Z,35.43
2018-10-05T07:00:10.107Z,39.87
2018-10-05T07:02:39.060Z,41.60
2018-10-05T07:05:08.444Z,43.07
2018-10-05T07:07:37.628Z,34.50
2018-10-05T07:10:06.431Z,28.13
2018-10-05T07:12:35.178Z,37.40
2018-10-05T07:15:03.982Z,35.73
2018-10-05T07:17:32.807Z,44.93
2018-10-05T07:20:01.983Z,37.50
2018-10-05T07:22:31.243Z,32.90
2018-10-05T07:25:00.151Z,30.53
2018-10-05T07:27:29.011Z,30.10
2018-10-05T07:29:57.975Z,39.30
2018-10-05T07:32:37.985Z,33.37
2018-10-05T07:35:08.951Z,30.47
2018-10-05T07:37:38.040Z,24.63
2018-10-05T07:40:07.589Z,40.70
2018-10-05T07:42:49.599Z,33.10
2018-10-05T07:45:18.953Z,32.23
2018-10-05T07:47:47.851Z,33.83
2018-10-05T07:50:17.314Z,34.50
2018-10-05T07:52:47.164Z,34.10
2018-10-05T07:55:16.011Z,31.83
2018-10-05T07:57:45.157Z,32.90
2018-10-05T08:00:15.604Z,26.63
2018-10-05T08:02:45.902Z,36.97
2018-10-05T08:05:14.654Z,36.57
2018-10-05T08:07:43.683Z,35.53
2018-10-05T08:10:12.550Z,30.97
2018-10-05T08:12:41.322Z,28.93
2018-10-05T08:15:10.460Z,21.27
2018-10-05T08:17:39.289Z,37.57
2018-10-05T08:20:08.129Z,24.40
2018-10-05T08:22:37.033Z,26.70
2018-10-05T08:25:07.248Z,23.37
2018-10-05T08:27:36.429Z,32.77
2018-10-05T08:30:06.204Z,32.43
2018-10-05T08:32:36.039Z,27.90
2018-10-05T08:35:04.840Z,27.93
2018-10-05T08:37:33.892Z,29.70
2018-10-05T08:40:02.711Z,25.30
2018-10-05T08:42:31.806Z,19.80
2018-10-05T08:45:00.723Z,24.90
2018-10-05T08:47:29.744Z,23.97
2018-10-05T08:49:58.946Z,24.07
2018-10-05T08:52:27.745Z,24.27
2018-10-05T08:54:56.845Z,23.90
2018-10-05T08:57:25.615Z,25.70
2018-10-05T08:59:54.813Z,23.30
2018-10-05T09:02:24.934Z,21.73
2018-10-05T09:04:54.448Z,23.90
2018-10-05T09:07:23.524Z,23.03
2018-10-05T09:09:52.919Z,22.20
2018-10-05T09:12:21.739Z,30.33
2018-10-05T09:14:50.885Z,28.10
2018-10-05T09:17:19.730Z,32.13
2018-10-05T09:19:48.627Z,36.80
2018-10-05T09:22:17.456Z,22.77
2018-10-05T09:24:46.813Z,24.27
2018-10-05T09:27:15.981Z,27.87
2018-10-05T09:29:44.936Z,23.60
2018-10-05T09:32:13.836Z,19.80
2018-10-05T09:34:42.668Z,18.93
2018-10-05T09:37:11.540Z,30.73
2018-10-05T09:39:40.490Z,21.30
2018-10-05T09:42:09.605Z,18.87
2018-10-05T09:44:38.494Z,22.73
2018-10-05T09:47:07.925Z,19.63
2018-10-05T09:49:37.838Z,22.80
2018-10-05T09:52:06.833Z,19.27
2018-10-05T09:54:36.087Z,22.80
2018-10-05T09:57:04.915Z,19.20
2018-10-05T09:59:34.085Z,25.57
2018-10-05T10:02:08.119Z,20.90
2018-10-05T10:04:36.974Z,16.67
2018-10-05T10:07:05.762Z,25.40
2018-10-05T10:09:34.992Z,15.83
2018-10-05T10:12:03.985Z,23.63
2018-10-05T10:14:32.810Z,20.73
2018-10-05T10:17:02.040Z,16.90
2018-10-05T10:19:31.307Z,18.53
2018-10-05T10:22:00.364Z,19.80
2018-10-05T10:24:29.492Z,20.17
2018-10-05T10:26:58.411Z,19.57
2018-10-05T10:29:27.259Z,16.50
2018-10-05T10:31:56.448Z,21.50
2018-10-05T10:34:25.883Z,13.60
2018-10-05T10:36:54.741Z,19.97
2018-10-05T10:39:23.812Z,19.17
2018-10-05T10:41:52.942Z,19.13
2018-10-05T10:44:22.172Z,23.57
2018-10-05T10:46:50.978Z,16.80
2018-10-05T10:49:20.681Z,21.63
2018-10-05T10:51:55.677Z,16.03
2018-10-05T10:54:24.489Z,18.73
2018-10-05T10:56:53.374Z,16.10
2018-10-05T10:59:22.191Z,20.00
2018-10-05T11:01:51.002Z,16.83
2018-10-05T11:04:20.527Z,21.70
2018-10-05T11:06:49.590Z,13.80
2018-10-05T11:09:18.367Z,19.30
2018-10-05T11:11:47.206Z,24.00
2018-10-05T11:14:15.986Z,20.60
2018-10-05T11:16:45.050Z,16.00
2018-10-05T11:19:13.836Z,18.03
2018-10-05T11:21:43.066Z,14.73
2018-10-05T11:24:12.195Z,15.70
2018-10-05T11:26:41.324Z,11.77
2018-10-05T11:29:10.107Z,12.93
2018-10-05T11:31:38.979Z,16.30
2018-10-05T11:34:07.688Z,13.87
2018-10-05T11:36:36.810Z,13.70
2018-10-05T11:39:06.479Z,13.80
2018-10-05T11:41:35.537Z,18.10
2018-10-05T11:44:04.996Z,17.80
2018-10-05T11:46:33.882Z,15.90
2018-10-05T11:49:03.232Z,18.53
2018-10-05T11:51:32.065Z,20.37
2018-10-05T11:54:00.896Z,18.43
2018-10-05T11:56:30.242Z,18.10
2018-10-05T11:58:59.595Z,16.63
2018-10-05T12:01:28.545Z,13.10
2018-10-05T12:03:57.330Z,16.03
2018-10-05T12:06:26.332Z,13.57
2018-10-05T12:08:55.578Z,18.27
2018-10-05T12:11:24.622Z,13.20
2018-10-05T12:13:53.702Z,20.63
2018-10-05T12:16:22.781Z,13.80
2018-10-05T12:18:51.766Z,21.60
2018-10-05T12:21:20.556Z,14.53
2018-10-05T12:23:49.790Z,17.77
2018-10-05T12:26:18.591Z,20.60
2018-10-05T12:28:47.414Z,15.37
2018-10-05T12:31:16.559Z,17.73
2018-10-05T12:33:45.555Z,18.33
2018-10-05T12:36:14.343Z,21.13
2018-10-05T12:38:43.477Z,14.40
2018-10-05T12:41:12.288Z,25.37
2018-10-05T12:43:41.446Z,15.77
2018-10-05T12:46:10.450Z,14.93
2018-10-05T12:48:39.221Z,14.90
2018-10-05T12:51:08.394Z,16.07
2018-10-05T12:53:37.220Z,15.37
2018-10-05T12:56:05.997Z,16.77
2018-10-05T12:58:34.746Z,14.13
2018-10-05T13:01:03.836Z,19.17
2018-10-05T13:03:32.683Z,15.50
2018-10-05T13:06:01.494Z,12.23
2018-10-05T13:08:30.631Z,17.10
2018-10-05T13:11:00.462Z,17.43
2018-10-05T13:13:29.712Z,13.33
2018-10-05T13:15:58.480Z,18.30
2018-10-05T13:18:28.078Z,18.00
2018-10-05T13:20:57.148Z,20.60
2018-10-05T13:23:26.121Z,16.37
2018-10-05T13:25:55.568Z,14.30
2018-10-05T13:28:24.910Z,14.70
2018-10-05T13:30:53.654Z,16.87
2018-10-05T13:33:22.446Z,15.33
2018-10-05T13:35:51.242Z,14.40
2018-10-05T13:38:20.214Z,14.93
2018-10-05T13:40:49.353Z,14.33
2018-10-05T13:43:18.195Z,11.43
2018-10-05T13:45:47.333Z,14.07
2018-10-05T13:48:16.870Z,15.67
2018-10-05T13:50:45.976Z,11.23
2018-10-05T13:53:14.962Z,17.37
2018-10-05T13:55:44.106Z,12.10
2018-10-05T13:58:13.195Z,10.30
2018-10-05T14:00:41.985Z,9.30
2018-10-05T14:03:10.855Z,14.63
2018-10-05T14:05:39.599Z,18.80
2018-10-05T14:08:08.463Z,16.00
2018-10-05T14:10:37.794Z,15.73
2018-10-05T14:13:06.049Z,18.93
2018-10-05T14:15:34.836Z,15.47
2018-10-05T14:18:04.128Z,8.30
2018-10-05T14:20:33.183Z,14.60
2018-10-05T14:23:02.279Z,8.10
2018-10-05T14:25:31.514Z,7.87
2018-10-05T14:28:00.283Z,14.93
2018-10-05T14:30:30.702Z,9.10
2018-10-05T14:32:59.446Z,9.73
2018-10-05T14:35:29.310Z,10.87
2018-10-05T14:37:58.102Z,7.13
2018-10-05T14:40:27.304Z,10.80
2018-10-05T14:42:56.065Z,11.93
2018-10-05T14:45:24.880Z,13.37
2018-10-05T14:47:53.700Z,13.20
2018-10-05T14:50:22.796Z,14.57
2018-10-05T14:52:51.818Z,15.30
2018-10-05T14:55:20.767Z,5.27
2018-10-05T14:57:49.536Z,13.83
2018-10-05T15:00:18.609Z,12.63
2018-10-05T15:02:47.723Z,11.80
2018-10-05T15:05:16.605Z,16.10
2018-10-05T15:07:45.448Z,7.63
2018-10-05T15:10:14.297Z,9.60
2018-10-05T15:12:43.426Z,10.30
2018-10-05T15:15:12.494Z,8.97
2018-10-05T15:17:41.305Z,6.77
2018-10-05T15:20:10.499Z,11.70
2018-10-05T15:22:39.579Z,9.93
2018-10-05T15:25:08.343Z,14.97
2018-10-05T15:27:37.358Z,11.53
2018-10-05T15:30:06.545Z,6.60
2018-10-05T15:32:35.418Z,9.03
2018-10-05T15:35:04.620Z,13.03
2018-10-05T15:37:33.747Z,14.47
2018-10-05T15:40:02.768Z,21.23
2018-10-05T15:42:31.555Z,20.07
2018-10-05T15:45:00.381Z,16.20
2018-10-05T15:47:29.461Z,4.70
2018-10-05T15:49:58.271Z,8.90
2018-10-05T15:52:27.007Z,15.03
2018-10-05T15:54:56.170Z,12.33
2018-10-05T15:57:25.282Z,8.73
2018-10-05T15:59:54.589Z,12.27
2018-10-05T16:02:23.671Z,9.07
2018-10-05T16:04:52.440Z,6.40
2018-10-05T16:07:22.300Z,9.27
2018-10-05T16:09:51.090Z,7.40
2018-10-05T16:12:20.005Z,8.10
2018-10-05T16:14:48.756Z,18.20
2018-10-05T16:17:17.799Z,10.33
2018-10-05T16:19:46.658Z,11.37
2018-10-05T16:22:15.450Z,13.03
2018-10-05T16:24:45.246Z,25.83
2018-10-05T16:27:14.726Z,10.80
2018-10-05T16:29:43.872Z,23.23
2018-10-05T16:32:13.150Z,12.63
2018-10-05T16:34:42.526Z,15.80
2018-10-05T16:37:12.652Z,14.13
2018-10-05T16:39:41.418Z,7.00
2018-10-05T16:42:11.602Z,9.43
2018-10-05T16:44:40.413Z,7.10
2018-10-05T16:47:09.513Z,13.40
2018-10-05T16:49:38.361Z,9.57
2018-10-05T16:52:07.739Z,8.00
2018-10-05T16:54:36.570Z,7.47
2018-10-05T16:57:05.655Z,20.63
2018-10-05T16:59:34.473Z,9.97
2018-10-05T17:02:03.875Z,10.80
2018-10-05T17:04:32.714Z,9.80
2018-10-05T17:07:01.525Z,7.20
2018-10-05T17:09:30.712Z,10.90
2018-10-05T17:11:59.438Z,8.70
2018-10-05T17:14:28.586Z,11.67
2018-10-05T17:16:57.393Z,21.87
2018-10-05T17:19:26.128Z,10.10
2018-10-05T17:21:55.344Z,19.20
2018-10-05T17:24:24.188Z,8.90
2018-10-05T17:26:53.560Z,10.13
2018-10-05T17:29:22.545Z,12.13
2018-10-05T17:31:54.024Z,23.97
2018-10-05T17:34:26.611Z,15.80
2018-10-05T17:36:55.376Z,10.50
2018-10-05T17:39:24.194Z,15.53
2018-10-05T17:41:53.119Z,14.23
2018-10-05T17:44:21.953Z,21.87
2018-10-05T17:46:51.310Z,17.30
2018-10-05T17:49:20.350Z,15.87
2018-10-05T17:51:51.473Z,21.23
2018-10-05T17:54:20.647Z,28.17
2018-10-05T17:56:49.502Z,47.60
2018-10-05T17:59:18.645Z,24.73
2018-10-05T18:01:54.527Z,25.93
2018-10-05T18:04:23.727Z,20.30
2018-10-05T18:06:58.789Z,19.23
2018-10-05T18:09:27.690Z,18.53
2018-10-05T18:11:58.102Z,14.27
2018-10-05T18:14:27.785Z,12.27
2018-10-05T18:16:56.692Z,33.40
2018-10-05T18:19:25.467Z,16.13
2018-10-05T18:21:54.258Z,16.80
2018-10-05T18:24:23.096Z,13.70
2018-10-05T18:26:51.973Z,13.80
2018-10-05T18:29:20.879Z,10.60
2018-10-05T18:31:50.285Z,12.87
2018-10-05T18:34:19.311Z,9.97
2018-10-05T18:36:48.179Z,16.27
2018-10-05T18:39:17.433Z,14.53
2018-10-05T18:41:46.304Z,10.63
2018-10-05T18:44:15.140Z,11.03
2018-10-05T18:46:44.188Z,9.30
2018-10-05T18:49:13.594Z,14.10
2018-10-05T18:51:43.035Z,19.67
2018-10-05T18:54:11.869Z,18.13
2018-10-05T18:56:51.917Z,10.23
2018-10-05T18:59:20.690Z,16.80
2018-10-05T19:01:49.784Z,16.40
2018-10-05T19:04:18.929Z,17.10
2018-10-05T19:06:48.474Z,13.57
2018-10-05T19:09:17.309Z,14.70
2018-10-05T19:11:46.462Z,9.37
2018-10-05T19:14:15.255Z,10.83
2018-10-05T19:16:44.070Z,12.90
2018-10-05T19:19:13.394Z,8.50
2018-10-05T19:21:42.305Z,16.40
2018-10-05T19:24:11.333Z,8.97
2018-10-05T19:26:40.152Z,12.83
2018-10-05T19:29:09.975Z,8.77
2018-10-05T19:31:38.977Z,10.53
2018-10-05T19:34:14.758Z,10.33
2018-10-05T19:36:44.087Z,7.73
2018-10-05T19:39:13.314Z,8.00
2018-10-05T19:41:42.381Z,12.13
2018-10-05T19:44:11.589Z,9.30
2018-10-05T19:46:40.693Z,14.40
2018-10-05T19:49:09.547Z,10.87
2018-10-05T19:51:38.346Z,25.57
2018-10-05T19:54:07.274Z,6.40
2018-10-05T19:56:36.445Z,19.33
2018-10-05T19:59:05.226Z,10.33
2018-10-05T20:01:34.031Z,8.07
2018-10-05T20:04:02.892Z,9.43
2018-10-05T20:06:31.783Z,14.90
2018-10-05T20:09:01.164Z,11.27
2018-10-05T20:11:30.761Z,11.60
2018-10-05T20:13:59.597Z,7.93
2018-10-05T20:16:28.588Z,13.27
2018-10-05T20:18:58.147Z,17.17
2018-10-05T20:21:27.170Z,16.80
2018-10-05T20:23:56.548Z,10.17
2018-10-05T20:26:25.393Z,9.10
2018-10-05T20:28:55.762Z,15.73
2018-10-05T20:31:24.589Z,17.73
2018-10-05T20:33:53.538Z,23.40
2018-10-05T20:36:23.065Z,16.10
2018-10-05T20:38:52.060Z,14.57
2018-10-05T20:41:21.378Z,12.50
2018-10-05T20:43:50.436Z,18.70
2018-10-05T20:46:19.636Z,14.50
2018-10-05T20:48:48.761Z,15.10
2018-10-05T20:51:17.886Z,22.27
2018-10-05T20:53:46.930Z,13.63
2018-10-05T20:56:16.566Z,15.30
2018-10-05T20:58:45.444Z,15.70
2018-10-05T21:01:14.855Z,17.33
2018-10-05T21:03:43.946Z,18.33
2018-10-05T21:06:12.844Z,15.23
2018-10-05T21:08:41.627Z,18.30
2018-10-05T21:11:10.754Z,14.10
2018-10-05T21:13:39.657Z,10.20
2018-10-05T21:16:09.071Z,10.83
2018-10-05T21:18:38.149Z,10.83
2018-10-05T21:21:07.237Z,10.40
2018-10-05T21:23:36.199Z,9.37
2018-10-05T21:26:05.497Z,17.33
2018-10-05T21:28:34.363Z,17.20
2018-10-05T21:31:04.223Z,14.93
2018-10-05T21:33:33.308Z,14.13
2018-10-05T21:36:02.353Z,12.33
2018-10-05T21:38:31.505Z,25.33
2018-10-05T21:41:00.542Z,12.53
2018-10-05T21:43:29.367Z,14.40
2018-10-05T21:45:58.483Z,7.63
2018-10-05T21:48:27.693Z,14.00
2018-10-05T21:50:56.636Z,11.10
2018-10-05T21:53:26.471Z,12.40
2018-10-05T21:55:56.913Z,13.43
2018-10-05T21:58:25.684Z,14.53
2018-10-05T22:00:54.563Z,17.17
2018-10-05T22:03:23.354Z,11.77
2018-10-05T22:05:52.124Z,13.73
2018-10-05T22:08:21.039Z,13.73
2018-10-05T22:10:49.873Z,23.13
2018-10-05T22:13:18.975Z,19.70
2018-10-05T22:15:48.174Z,15.47
2018-10-05T22:18:17.378Z,17.23
2018-10-05T22:20:46.315Z,9.07
2018-10-05T22:23:15.905Z,16.10
2018-10-05T22:25:44.746Z,14.17
2018-10-05T22:28:13.629Z,20.93
2018-10-05T22:30:42.914Z,20.23
2018-10-05T22:33:12.342Z,10.10
2018-10-05T22:35:42.371Z,12.90
2018-10-05T22:38:12.307Z,10.27
2018-10-05T22:40:42.447Z,16.77
2018-10-05T22:43:11.733Z,9.13
2018-10-05T22:45:41.029Z,15.30
2018-10-05T22:48:10.119Z,14.03
2018-10-05T22:50:39.073Z,25.60
2018-10-05T22:53:08.373Z,15.27
2018-10-05T22:55:37.700Z,16.67
2018-10-05T22:58:06.597Z,11.50
2018-10-05T23:00:35.515Z,8.67
2018-10-05T23:03:06.487Z,16.13
2018-10-05T23:05:35.543Z,13.97
2018-10-05T23:08:04.852Z,12.40
2018-10-05T23:10:34.170Z,11.47
2018-10-05T23:13:03.289Z,12.50
2018-10-05T23:15:32.479Z,11.07
2018-10-05T23:18:01.612Z,11.63
2018-10-05T23:20:30.828Z,8.00
2018-10-05T23:23:00.362Z,11.63
2018-10-05T23:25:35.700Z,8.97
2018-10-05T23:28:04.745Z,11.57
2018-10-05T23:30:33.875Z,6.90
2018-10-05T23:33:03.228Z,18.33
2018-10-05T23:35:32.192Z,7.73
2018-10-05T23:38:01.063Z,11.47
2018-10-05T23:40:30.236Z,6.57
2018-10-05T23:42:59.574Z,11.97
2018-10-05T23:45:28.754Z,13.27
2018-10-05T23:47:57.784Z,10.50
2018-10-05T23:50:26.859Z,11.63
2018-10-05T23:52:55.813Z,8.33
2018-10-05T23:55:24.916Z,9.03
2018-10-05T23:57:53.657Z,9.07
